createdAt,value
2022-11-29T00:01:29.955Z,1.45
2022-11-29T00:03:57.987Z,1.38
2022-11-29T00:06:27.463Z,1.20
2022-11-29T00:08:56.267Z,1.23
2022-11-29T00:11:44.147Z,2.08
2022-11-29T00:14:13.668Z,1.83
2022-11-29T00:16:41.586Z,1.58
2022-11-29T00:19:10.526Z,1.50
2022-11-29T00:21:38.395Z,1.75
2022-11-29T00:24:06.380Z,1.70
2022-11-29T00:26:34.043Z,2.20
2022-11-29T00:29:01.669Z,1.42
2022-11-29T00:31:30.895Z,1.52
2022-11-29T00:33:59.625Z,1.42
2022-11-29T00:36:27.518Z,1.90
2022-11-29T00:38:55.221Z,1.70
2022-11-29T00:41:22.784Z,1.05
2022-11-29T00:43:50.437Z,1.75
2022-11-29T00:46:18.208Z,1.50
2022-11-29T00:48:46.271Z,1.05
2022-11-29T00:51:13.960Z,1.50
2022-11-29T00:53:41.772Z,1.25
2022-11-29T00:56:09.732Z,1.55
2022-11-29T00:58:37.651Z,1.52
2022-11-29T01:01:05.780Z,1.75
2022-11-29T01:03:33.587Z,1.38
2022-11-29T01:06:02.119Z,1.17
2022-11-29T01:08:29.840Z,0.93
2022-11-29T01:11:08.173Z,1.10
2022-11-29T01:13:36.015Z,2.25
2022-11-29T01:16:04.455Z,2.08
2022-11-29T01:18:32.614Z,1.52
2022-11-29T01:21:01.359Z,1.30
2022-11-29T01:23:29.536Z,0.90
2022-11-29T01:25:58.097Z,1.17
2022-11-29T01:28:25.801Z,1.30
2022-11-29T01:30:53.400Z,1.23
2022-11-29T01:33:21.166Z,1.05
2022-11-29T01:35:52.654Z,1.20
2022-11-29T01:38:20.767Z,1.40
2022-11-29T01:40:59.434Z,1.35
2022-11-29T01:43:27.780Z,2.55
2022-11-29T01:45:55.547Z,1.33
2022-11-29T01:48:24.740Z,1.58
2022-11-29T01:50:54.650Z,1.70
2022-11-29T01:53:22.361Z,1.33
2022-11-29T01:55:53.108Z,1.65
2022-11-29T01:58:21.627Z,2.33
2022-11-29T02:00:49.485Z,2.42
2022-11-29T02:03:19.081Z,1.90
2022-11-29T02:05:49.175Z,2.97
2022-11-29T02:08:19.219Z,1.80
2022-11-29T02:11:05.733Z,2.90
2022-11-29T02:13:56.552Z,2.20
2022-11-29T02:16:32.199Z,2.30
2022-11-29T02:19:12.373Z,1.90
2022-11-29T02:21:49.197Z,2.50
2022-11-29T02:24:33.829Z,2.35
2022-11-29T02:27:17.114Z,2.58
2022-11-29T02:30:03.194Z,2.40
2022-11-29T02:32:49.704Z,2.65
2022-11-29T02:35:28.574Z,2.85
2022-11-29T02:38:05.117Z,3.05
2022-11-29T02:40:38.905Z,2.42
2022-11-29T02:43:15.612Z,2.72
2022-11-29T02:46:01.965Z,2.05
2022-11-29T02:48:32.716Z,2.33
2022-11-29T02:51:07.701Z,4.05
2022-11-29T02:53:45.001Z,2.25
2022-11-29T02:56:21.453Z,2.40
2022-11-29T02:59:01.908Z,2.80
2022-11-29T03:01:32.690Z,2.03
2022-11-29T03:04:17.205Z,2.30
2022-11-29T03:06:49.332Z,2.40
2022-11-29T03:09:26.314Z,2.45
2022-11-29T03:12:02.411Z,2.95
2022-11-29T03:14:35.458Z,2.83
2022-11-29T03:17:31.385Z,3.20
2022-11-29T03:20:28.584Z,3.50
2022-11-29T03:22:56.328Z,2.60
2022-11-29T03:25:30.136Z,3.25
2022-11-29T03:28:19.372Z,2.67
2022-11-29T03:31:16.198Z,2.67
2022-11-29T03:33:49.229Z,2.33
2022-11-29T03:36:25.771Z,2.25
2022-11-29T03:38:56.128Z,3.65
2022-11-29T03:41:23.723Z,2.47
2022-11-29T03:43:51.336Z,4.30
2022-11-29T03:46:26.551Z,3.03
2022-11-29T03:48:56.650Z,3.25
2022-11-29T03:51:27.867Z,3.15
2022-11-29T03:53:58.439Z,2.90
2022-11-29T03:56:33.527Z,2.60
2022-11-29T03:59:01.200Z,3.10
2022-11-29T04:02:04.264Z,3.05
2022-11-29T04:04:31.838Z,2.90
2022-11-29T04:07:05.656Z,3.55
2022-11-29T04:09:36.367Z,2.45
2022-11-29T04:12:22.908Z,2.53
2022-11-29T04:14:53.477Z,2.10
2022-11-29T04:17:39.911Z,2.45
2022-11-29T04:20:28.483Z,2.95
2022-11-29T04:22:56.142Z,2.60
2022-11-29T04:25:35.939Z,2.45
2022-11-29T04:28:22.411Z,2.67
2022-11-29T04:30:56.192Z,3.00
2022-11-29T04:33:26.590Z,2.55
2022-11-29T04:36:06.395Z,2.07
2022-11-29T04:38:44.289Z,2.30
2022-11-29T04:41:11.951Z,2.60
2022-11-29T04:43:45.315Z,3.25
2022-11-29T04:46:21.920Z,3.22
2022-11-29T04:48:52.590Z,2.90
2022-11-29T04:51:41.475Z,2.40
2022-11-29T04:54:13.465Z,2.60
2022-11-29T04:56:44.003Z,2.40
2022-11-29T04:59:14.658Z,2.90
2022-11-29T05:01:54.283Z,2.85
2022-11-29T05:04:40.760Z,2.83
2022-11-29T05:07:15.121Z,2.72
2022-11-29T05:10:03.734Z,2.55
2022-11-29T05:12:53.882Z,3.42
2022-11-29T05:15:30.771Z,3.45
2022-11-29T05:18:07.521Z,3.10
2022-11-29T05:20:41.962Z,2.60
2022-11-29T05:23:09.500Z,3.60
2022-11-29T05:25:51.151Z,2.75
2022-11-29T05:28:26.713Z,3.78
2022-11-29T05:31:01.910Z,3.13
2022-11-29T05:33:35.458Z,3.65
2022-11-29T05:36:15.253Z,3.55
2022-11-29T05:38:45.755Z,3.08
2022-11-29T05:41:20.617Z,3.33
2022-11-29T05:43:51.628Z,3.55
2022-11-29T05:46:30.001Z,3.40
2022-11-29T05:49:01.763Z,3.25
2022-11-29T05:51:45.164Z,2.88
2022-11-29T05:54:22.250Z,3.33
2022-11-29T05:56:58.411Z,3.00
2022-11-29T05:59:28.326Z,4.45
2022-11-29T06:01:59.778Z,4.05
2022-11-29T06:04:36.617Z,3.90
2022-11-29T06:07:15.422Z,3.63
2022-11-29T06:10:12.532Z,4.13
2022-11-29T06:12:40.793Z,4.55
2022-11-29T06:15:15.266Z,4.57
2022-11-29T06:17:45.668Z,4.47
2022-11-29T06:20:48.845Z,3.70
2022-11-29T06:23:16.422Z,4.75
2022-11-29T06:26:03.525Z,3.40
2022-11-29T06:28:42.393Z,4.00
2022-11-29T06:31:19.496Z,4.55
2022-11-29T06:34:02.335Z,3.80
2022-11-29T06:36:32.778Z,4.45
2022-11-29T06:39:00.548Z,4.53
2022-11-29T06:41:28.327Z,3.65
2022-11-29T06:43:56.070Z,3.50
2022-11-29T06:46:29.940Z,3.78
2022-11-29T06:49:02.461Z,4.25
2022-11-29T06:51:36.019Z,5.07
2022-11-29T06:54:09.775Z,3.58
2022-11-29T06:56:40.648Z,4.25
2022-11-29T06:59:11.138Z,3.88
2022-11-29T07:01:47.981Z,4.43
2022-11-29T07:04:30.196Z,4.32
2022-11-29T07:06:58.085Z,5.95
2022-11-29T07:09:34.979Z,3.67
2022-11-29T07:12:02.655Z,3.30
2022-11-29T07:14:30.280Z,2.97
2022-11-29T07:17:07.831Z,3.28
2022-11-29T07:19:38.869Z,3.65
2022-11-29T07:22:06.372Z,3.60
2022-11-29T07:24:39.592Z,4.90
2022-11-29T07:27:26.133Z,3.97
2022-11-29T07:30:05.159Z,3.92
2022-11-29T07:32:55.910Z,4.05
2022-11-29T07:35:34.720Z,3.63
2022-11-29T07:38:21.438Z,4.20
2022-11-29T07:40:51.924Z,4.68
2022-11-29T07:43:24.250Z,4.55
2022-11-29T07:45:52.170Z,4.57
2022-11-29T07:48:19.744Z,5.53
2022-11-29T07:50:48.303Z,4.50
2022-11-29T07:53:19.898Z,3.70
2022-11-29T07:55:48.084Z,3.55
2022-11-29T07:58:17.057Z,4.28
2022-11-29T08:00:44.935Z,4.32
2022-11-29T08:03:12.608Z,4.03
2022-11-29T08:05:40.409Z,3.50
2022-11-29T08:08:08.210Z,5.55
2022-11-29T08:10:35.872Z,5.50
2022-11-29T08:13:03.807Z,6.45
2022-11-29T08:15:31.449Z,5.95
2022-11-29T08:17:58.995Z,4.57
2022-11-29T08:20:26.892Z,4.10
2022-11-29T08:22:58.936Z,4.38
2022-11-29T08:25:27.545Z,4.20
2022-11-29T08:27:56.011Z,4.53
2022-11-29T08:30:24.142Z,4.28
2022-11-29T08:32:52.215Z,4.03
2022-11-29T08:35:20.698Z,3.90
2022-11-29T08:37:48.313Z,3.63
2022-11-29T08:40:16.241Z,5.00
2022-11-29T08:42:43.786Z,5.25
2022-11-29T08:45:11.727Z,4.95
2022-11-29T08:47:41.873Z,3.90
2022-11-29T08:50:17.727Z,3.63
2022-11-29T08:53:05.880Z,3.75
2022-11-29T08:55:34.756Z,3.30
2022-11-29T08:58:06.538Z,5.10
2022-11-29T09:00:34.591Z,5.18
2022-11-29T09:03:21.799Z,4.07
2022-11-29T09:05:49.632Z,3.30
2022-11-29T09:08:17.192Z,2.83
2022-11-29T09:10:45.212Z,3.65
2022-11-29T09:13:13.286Z,3.58
2022-11-29T09:15:42.416Z,3.20
2022-11-29T09:18:09.941Z,3.38
2022-11-29T09:20:37.606Z,3.85
2022-11-29T09:23:05.164Z,3.10
2022-11-29T09:25:32.669Z,2.90
2022-11-29T09:28:02.799Z,2.95
2022-11-29T09:30:31.549Z,3.42
2022-11-29T09:33:05.311Z,2.83
2022-11-29T09:35:33.474Z,3.05
2022-11-29T09:38:01.029Z,3.20
2022-11-29T09:40:32.556Z,3.47
2022-11-29T09:43:03.137Z,3.38
2022-11-29T09:45:32.803Z,4.03
2022-11-29T09:48:14.596Z,4.40
2022-11-29T09:50:47.105Z,3.03
2022-11-29T09:53:51.888Z,3.83
2022-11-29T09:56:25.930Z,2.70
2022-11-29T09:58:57.861Z,3.38
2022-11-29T10:01:27.687Z,3.30
2022-11-29T10:03:57.276Z,3.47
2022-11-29T10:06:27.168Z,3.70
2022-11-29T10:08:58.584Z,2.95
2022-11-29T10:11:30.968Z,3.70
2022-11-29T10:14:04.342Z,2.53
2022-11-29T10:16:52.973Z,3.28
2022-11-29T10:19:33.372Z,3.20
2022-11-29T10:22:03.987Z,3.05
2022-11-29T10:24:32.698Z,3.58
2022-11-29T10:27:00.449Z,3.63
2022-11-29T10:29:28.233Z,3.05
2022-11-29T10:31:57.699Z,2.75
2022-11-29T10:34:26.472Z,3.83
2022-11-29T10:37:02.550Z,3.17
2022-11-29T10:39:34.712Z,2.90
2022-11-29T10:42:03.157Z,3.10
2022-11-29T10:44:32.472Z,3.30
2022-11-29T10:47:09.221Z,4.30
2022-11-29T10:49:40.537Z,3.30
2022-11-29T10:52:17.549Z,3.38
2022-11-29T10:54:47.097Z,3.67
2022-11-29T10:57:16.508Z,3.42
2022-11-29T10:59:59.340Z,3.08
2022-11-29T11:02:27.731Z,3.05
2022-11-29T11:04:55.340Z,3.47
2022-11-29T11:07:26.334Z,2.97
2022-11-29T11:12:23.244Z,3.60
2022-11-29T11:14:51.552Z,2.35
2022-11-29T11:17:22.660Z,2.72
2022-11-29T11:22:22.326Z,2.33
2022-11-29T11:24:57.295Z,2.58
2022-11-29T11:27:40.409Z,2.53
2022-11-29T11:30:24.735Z,3.42
2022-11-29T11:33:11.269Z,3.30
2022-11-29T11:35:38.875Z,2.58
2022-11-29T11:38:06.494Z,2.35
2022-11-29T11:40:34.617Z,2.55
2022-11-29T11:43:03.304Z,2.70
2022-11-29T11:45:33.955Z,2.08
2022-11-29T11:48:12.610Z,2.40
2022-11-29T11:50:45.275Z,1.92
2022-11-29T11:53:24.710Z,1.85
2022-11-29T11:56:00.738Z,2.28
2022-11-29T11:58:39.605Z,2.30
2022-11-29T12:01:13.310Z,2.10
2022-11-29T12:03:59.688Z,2.03
2022-11-29T12:06:35.744Z,2.67
2022-11-29T12:09:13.886Z,1.67
2022-11-29T12:11:45.278Z,2.00
2022-11-29T12:14:19.070Z,3.35
2022-11-29T12:16:48.431Z,2.17
2022-11-29T12:19:18.474Z,2.17
2022-11-29T12:21:48.442Z,3.90
2022-11-29T12:24:33.920Z,2.50
2022-11-29T12:27:04.342Z,3.20
2022-11-29T12:29:33.509Z,1.90
2022-11-29T12:32:06.666Z,2.08
2022-11-29T12:34:58.482Z,2.70
2022-11-29T12:37:32.127Z,2.55
2022-11-29T12:40:07.094Z,3.28
2022-11-29T12:42:40.733Z,2.17
2022-11-29T12:45:19.477Z,2.42
2022-11-29T12:48:10.323Z,2.75
2022-11-29T12:50:37.909Z,2.17
2022-11-29T12:53:22.585Z,3.30
2022-11-29T12:56:13.592Z,2.60
2022-11-29T12:59:00.037Z,2.03
2022-11-29T13:01:36.157Z,2.63
2022-11-29T13:04:17.441Z,2.28
2022-11-29T13:09:28.222Z,2.58
2022-11-29T13:11:59.350Z,2.63
2022-11-29T13:17:20.297Z,2.70
2022-11-29T13:19:54.183Z,2.83
2022-11-29T13:23:00.333Z,2.83
2022-11-29T13:25:38.739Z,2.50
2022-11-29T13:28:18.527Z,2.30
2022-11-29T13:30:46.251Z,2.83
2022-11-29T13:33:33.069Z,2.80
2022-11-29T13:36:12.965Z,5.25
2022-11-29T13:38:47.892Z,3.28
2022-11-29T13:41:34.528Z,2.85
2022-11-29T13:44:12.099Z,2.63
2022-11-29T13:46:39.883Z,2.67
2022-11-29T13:49:19.894Z,2.30
2022-11-29T13:51:47.549Z,2.15
2022-11-29T13:54:29.858Z,2.70
2022-11-29T13:57:03.682Z,1.80
2022-11-29T13:59:32.205Z,2.35
2022-11-29T14:02:00.022Z,1.83
2022-11-29T14:04:36.893Z,1.95
2022-11-29T14:07:04.503Z,2.20
2022-11-29T14:09:32.018Z,1.92
2022-11-29T14:12:18.900Z,1.88
2022-11-29T14:14:51.705Z,1.80
2022-11-29T14:17:34.007Z,1.70
2022-11-29T14:20:20.326Z,2.03
2022-11-29T14:23:13.733Z,1.83
2022-11-29T14:25:52.120Z,2.22
2022-11-29T14:28:23.102Z,1.45
2022-11-29T14:30:53.551Z,2.47
2022-11-29T14:33:40.232Z,3.78
2022-11-29T14:36:26.686Z,2.03
2022-11-29T14:39:02.563Z,2.15
2022-11-29T14:41:49.795Z,2.90
2022-11-29T14:44:22.923Z,1.85
2022-11-29T14:47:03.083Z,1.90
2022-11-29T14:49:31.370Z,1.67
2022-11-29T14:52:09.267Z,1.98
2022-11-29T14:54:37.562Z,1.52
2022-11-29T14:57:25.299Z,2.00
2022-11-29T14:59:53.579Z,2.55
2022-11-29T15:02:26.528Z,3.13
2022-11-29T15:04:56.049Z,2.20
2022-11-29T15:07:26.225Z,2.45
2022-11-29T15:09:56.049Z,2.00
2022-11-29T15:12:34.944Z,1.98
2022-11-29T15:15:21.283Z,2.25
2022-11-29T15:18:01.251Z,2.15
2022-11-29T15:20:35.905Z,2.78
2022-11-29T15:23:05.435Z,2.78
2022-11-29T15:25:33.344Z,2.92
2022-11-29T15:28:02.205Z,3.15
2022-11-29T15:30:29.974Z,3.20
2022-11-29T15:32:58.927Z,2.47
2022-11-29T15:35:26.447Z,3.03
2022-11-29T15:37:54.628Z,3.28
2022-11-29T15:40:24.184Z,3.20
2022-11-29T15:42:55.552Z,3.28
2022-11-29T15:45:26.244Z,3.55
2022-11-29T15:47:54.179Z,3.85
2022-11-29T15:50:29.300Z,4.95
2022-11-29T15:53:00.204Z,4.00
2022-11-29T15:55:28.159Z,4.00
2022-11-29T15:57:59.266Z,4.68
2022-11-29T16:00:30.525Z,3.53
2022-11-29T16:03:00.634Z,4.47
2022-11-29T16:05:38.271Z,3.67
2022-11-29T16:08:07.964Z,5.03
2022-11-29T16:10:36.920Z,4.60
2022-11-29T16:13:26.316Z,4.72
2022-11-29T16:16:12.337Z,4.53
2022-11-29T16:18:41.054Z,4.63
2022-11-29T16:21:43.489Z,4.47
2022-11-29T16:27:13.906Z,5.22
2022-11-29T16:29:45.651Z,4.68
2022-11-29T16:32:16.359Z,5.65
2022-11-29T16:34:45.546Z,6.35
2022-11-29T16:37:16.777Z,6.72
2022-11-29T16:39:49.115Z,8.55
2022-11-29T16:42:28.365Z,7.60
2022-11-29T16:45:28.492Z,6.90
2022-11-29T16:47:59.752Z,8.25
2022-11-29T16:50:30.044Z,8.57
2022-11-29T16:53:19.156Z,7.80
2022-11-29T16:55:46.714Z,8.93
2022-11-29T16:58:16.983Z,8.57
2022-11-29T17:00:44.831Z,9.33
2022-11-29T17:03:12.464Z,8.35
2022-11-29T17:05:44.569Z,9.65
2022-11-29T17:08:12.790Z,9.65
2022-11-29T17:10:40.364Z,10.35
2022-11-29T17:13:11.575Z,10.05
2022-11-29T17:18:06.819Z,10.25
2022-11-29T17:20:36.695Z,10.02
2022-11-29T17:23:04.444Z,11.32
2022-11-29T17:25:33.582Z,10.77
2022-11-29T17:28:01.488Z,11.32
2022-11-29T17:30:31.350Z,11.57
2022-11-29T17:32:58.919Z,12.70
2022-11-29T17:35:26.528Z,11.40
2022-11-29T17:37:54.243Z,11.57
2022-11-29T17:40:21.822Z,11.52
2022-11-29T17:42:49.449Z,13.02
2022-11-29T17:45:17.267Z,11.48
2022-11-29T17:47:48.520Z,11.45
2022-11-29T17:52:45.080Z,11.30
2022-11-29T17:55:12.708Z,12.30
2022-11-29T17:57:40.204Z,11.95
2022-11-29T18:00:10.829Z,10.15
2022-11-29T18:02:38.422Z,10.43
2022-11-29T18:05:06.279Z,11.15
2022-11-29T18:07:34.389Z,12.98
2022-11-29T18:10:02.008Z,10.43
2022-11-29T18:12:29.612Z,10.80
2022-11-29T18:14:57.228Z,10.00
2022-11-29T18:17:24.863Z,11.13
2022-11-29T18:19:52.500Z,11.15
2022-11-29T18:22:20.197Z,10.38
2022-11-29T18:24:48.044Z,11.32
2022-11-29T18:27:15.759Z,10.82
2022-11-29T18:29:43.394Z,11.57
2022-11-29T18:32:13.740Z,11.75
2022-11-29T18:34:41.400Z,10.77
2022-11-29T18:37:14.087Z,11.73
2022-11-29T18:39:46.310Z,12.85
2022-11-29T18:42:14.083Z,12.40
2022-11-29T18:44:41.678Z,12.68
2022-11-29T18:47:09.266Z,14.38
2022-11-29T18:49:36.896Z,13.43
2022-11-29T18:52:04.548Z,11.98
2022-11-29T18:54:32.183Z,12.85
2022-11-29T18:56:59.898Z,13.13
2022-11-29T18:59:27.550Z,13.60
2022-11-29T19:01:55.197Z,13.40
2022-11-29T19:04:25.764Z,12.80
2022-11-29T19:06:53.308Z,9.82
2022-11-29T19:09:21.873Z,13.63
2022-11-29T19:11:50.019Z,13.48
2022-11-29T19:14:18.165Z,14.50
2022-11-29T19:16:46.397Z,14.10
2022-11-29T19:19:14.129Z,14.68
2022-11-29T19:21:52.496Z,13.85
2022-11-29T19:24:28.908Z,13.23
2022-11-29T19:26:56.840Z,14.38
2022-11-29T19:29:24.450Z,14.95
2022-11-29T19:31:52.041Z,14.43
2022-11-29T19:34:33.984Z,13.95
2022-11-29T19:37:04.619Z,16.38
2022-11-29T19:39:52.333Z,15.90
2022-11-29T19:42:22.159Z,15.70
2022-11-29T19:45:16.519Z,16.77
2022-11-29T19:47:50.144Z,15.55
2022-11-29T19:50:20.329Z,15.80
2022-11-29T19:52:50.521Z,17.25
2022-11-29T19:55:20.383Z,16.23
2022-11-29T19:57:48.016Z,16.88
2022-11-29T20:00:15.948Z,16.23
2022-11-29T20:02:43.643Z,17.60
2022-11-29T20:05:12.473Z,15.93
2022-11-29T20:07:40.165Z,16.27
2022-11-29T20:10:09.125Z,17.15
2022-11-29T20:12:37.730Z,17.48
2022-11-29T20:15:06.215Z,17.02
2022-11-29T20:17:34.591Z,16.70
2022-11-29T20:20:05.711Z,19.27
2022-11-29T20:22:33.877Z,16.92
2022-11-29T20:25:02.777Z,18.35
2022-11-29T20:27:31.200Z,16.88
2022-11-29T20:29:59.496Z,16.27
2022-11-29T20:32:28.180Z,16.73
2022-11-29T20:34:56.339Z,17.13
2022-11-29T20:37:43.767Z,17.45
2022-11-29T20:40:20.990Z,17.80
2022-11-29T20:42:51.820Z,17.27
2022-11-29T20:45:19.892Z,18.48
2022-11-29T20:47:47.878Z,16.60
2022-11-29T20:50:23.456Z,16.35
2022-11-29T20:52:51.415Z,17.50
2022-11-29T20:55:21.405Z,15.82
2022-11-29T20:57:49.904Z,19.58
2022-11-29T21:00:18.192Z,17.33
2022-11-29T21:02:46.151Z,18.48
2022-11-29T21:05:15.344Z,17.85
2022-11-29T21:07:45.239Z,17.05
2022-11-29T21:10:15.492Z,17.17
2022-11-29T21:12:45.587Z,17.77
2022-11-29T21:15:14.603Z,16.70
2022-11-29T21:17:43.160Z,17.17
2022-11-29T21:20:21.101Z,18.50
2022-11-29T21:23:04.255Z,17.13
2022-11-29T21:25:43.938Z,18.83
2022-11-29T21:28:12.786Z,17.23
2022-11-29T21:30:40.846Z,16.48
2022-11-29T21:33:08.878Z,16.23
2022-11-29T21:35:39.619Z,17.40
2022-11-29T21:38:10.691Z,17.65
2022-11-29T21:43:05.698Z,17.33
2022-11-29T21:45:33.252Z,16.83
2022-11-29T21:48:01.051Z,17.33
2022-11-29T21:50:28.610Z,17.83
2022-11-29T21:52:56.942Z,17.77
2022-11-29T21:55:31.583Z,17.35
2022-11-29T21:57:59.677Z,18.45
2022-11-29T22:00:27.244Z,17.90
2022-11-29T22:02:56.664Z,17.55
2022-11-29T22:05:24.359Z,16.60
2022-11-29T22:07:55.783Z,16.52
2022-11-29T22:10:23.477Z,18.83
2022-11-29T22:12:52.450Z,18.33
2022-11-29T22:15:24.748Z,18.92
2022-11-29T22:17:53.427Z,16.45
2022-11-29T22:20:21.280Z,18.17
2022-11-29T22:22:49.461Z,17.20
2022-11-29T22:25:17.191Z,17.90
2022-11-29T22:27:44.784Z,19.92
2022-11-29T22:30:12.860Z,20.17
2022-11-29T22:32:40.376Z,20.35
2022-11-29T22:35:08.242Z,17.05
2022-11-29T22:37:35.767Z,16.55
2022-11-29T22:40:03.506Z,15.90
2022-11-29T22:42:31.008Z,16.40
2022-11-29T22:44:58.579Z,13.27
2022-11-29T22:47:26.087Z,13.98
2022-11-29T22:49:53.631Z,14.43
2022-11-29T22:52:21.126Z,13.30
2022-11-29T22:54:48.916Z,13.68
2022-11-29T22:57:16.759Z,15.25
2022-11-29T22:59:44.381Z,14.30
2022-11-29T23:02:12.056Z,15.38
2022-11-29T23:04:39.616Z,14.15
2022-11-29T23:07:07.223Z,14.65
2022-11-29T23:09:34.869Z,15.38
2022-11-29T23:12:02.443Z,13.82
2022-11-29T23:14:30.012Z,14.23
2022-11-29T23:16:57.644Z,14.25
2022-11-29T23:19:25.277Z,17.02
2022-11-29T23:21:53.228Z,17.60
2022-11-29T23:24:20.934Z,16.85
2022-11-29T23:26:48.536Z,16.73
2022-11-29T23:29:17.711Z,16.25
2022-11-29T23:31:46.447Z,16.80
2022-11-29T23:34:14.097Z,15.98
2022-11-29T23:36:41.686Z,16.00
2022-11-29T23:39:09.388Z,16.27
2022-11-29T23:41:37.512Z,17.63
2022-11-29T23:44:05.811Z,16.65
2022-11-29T23:46:33.472Z,18.15
2022-11-29T23:49:01.086Z,17.67
2022-11-29T23:51:28.698Z,16.83
2022-11-29T23:53:56.495Z,18.30
2022-11-29T23:56:24.014Z,17.05
2022-11-29T23:58:51.528Z,17.10
